Time;durP1;ratioP1;P1;durP2;ratioP2;P2;SDS_P1;SDS_P2;PMS_P1;PMS_P2;Temp;Humidity;BMP_temperature;BMP_pressure;BME280_temperature;BME280_humidity;BME280_pressure;Samples;Min_cycle;Max_cycle;Signal;HPM_P1;HPM_P2
2022/01/22 00:00:00;;;;;;;5.60;3.23;;;;;;;0.25;52.78;101920.94;2569277;23;20152;-69
2022/01/22 00:01:02;;;;;;;6.60;3.03;;;;;;;0.76;52.89;101982.44;2567095;23;20163;-69
2022/01/22 00:02:05;;;;;;;5.78;3.25;;;;;;;0.52;53.08;101950.41;2569545;23;20156;-69
2022/01/22 00:03:06;;;;;;;7.20;3.25;;;;;;;0.77;53.01;101976.66;2569300;23;20159;-69
2022/01/22 00:04:06;;;;;;;7.73;3.57;;;;;;;0.68;52.91;101966.97;2556255;23;20187;-69
2022/01/22 00:05:10;;;;;;;5.43;3.23;;;;;;;0.80;53.10;101977.94;2556091;23;20204;-69
2022/01/22 00:06:10;;;;;;;7.55;3.20;;;;;;;0.61;52.88;101948.41;2569650;23;20152;-69
2022/01/22 00:07:11;;;;;;;7.03;3.07;;;;;;;0.80;52.76;101976.00;2555914;23;20170;-69
2022/01/22 00:08:11;;;;;;;7.37;3.33;;;;;;;0.40;52.65;101914.88;2556393;23;20557;-69
2022/01/22 00:09:12;;;;;;;10.83;3.60;;;;;;;-0.38;52.38;101795.06;2567556;23;20602;-69
2022/01/22 00:10:19;;;;;;;7.13;3.20;;;;;;;0.80;52.46;101972.47;2568689;23;20250;-69
2022/01/22 00:11:20;;;;;;;8.50;3.22;;;;;;;0.13;52.85;101868.25;2567726;23;20238;-69
2022/01/22 00:12:40;;;;;;;6.00;2.87;;;;;;;0.79;52.81;101970.88;2569516;23;20250;-69
2022/01/22 00:15:00;;;;;;;6.75;3.10;;;;;;;0.78;52.80;101969.28;2569245;23;20144;-69
2022/01/22 00:16:00;;;;;;;6.80;2.97;;;;;;;0.68;53.07;101961.50;2569326;23;20151;-69
2022/01/22 00:17:02;;;;;;;6.23;3.30;;;;;;;0.75;53.33;101976.22;2569229;23;20163;-69
2022/01/22 00:18:03;;;;;;;6.03;3.22;;;;;;;0.81;52.28;101980.34;2569331;23;20183;-69
2022/01/22 00:19:08;;;;;;;6.97;3.20;;;;;;;0.80;52.97;101973.28;2568434;23;20167;-69
2022/01/22 00:20:10;;;;;;;7.68;3.78;;;;;;;0.70;52.83;101953.78;2569522;23;20475;-69
2022/01/22 00:21:11;;;;;;;5.80;2.80;;;;;;;0.80;52.85;101975.22;2567833;23;20158;-70
2022/01/22 00:22:12;;;;;;;5.90;3.33;;;;;;;0.70;52.61;101954.59;2569658;23;20152;-69
2022/01/22 00:23:15;;;;;;;6.97;3.27;;;;;;;0.76;52.53;101969.63;2569121;23;20161;-69
2022/01/22 00:24:16;;;;;;;6.90;3.15;;;;;;;0.75;52.51;101975.41;2569441;23;20206;-69
2022/01/22 00:25:20;;;;;;;6.82;2.75;;;;;;;0.70;52.51;101968.22;2569306;23;20213;-69
2022/01/22 00:26:22;;;;;;;5.60;3.15;;;;;;;-0.01;52.61;101868.53;2569395;23;20199;-69
2022/01/22 00:27:23;;;;;;;8.52;3.08;;;;;;;0.59;53.10;101980.69;2569407;23;20147;-69
2022/01/22 00:28:23;;;;;;;6.63;3.33;;;;;;;0.47;53.01;101966.19;2568444;23;20242;-69
2022/01/22 00:29:24;;;;;;;6.70;3.40;;;;;;;0.33;52.77;101938.34;2567470;23;20170;-69
2022/01/22 00:30:26;;;;;;;6.63;3.00;;;;;;;-0.10;53.05;101895.03;2569444;23;20218;-69
2022/01/22 00:31:26;;;;;;;5.70;3.00;;;;;;;0.28;53.28;101944.00;2567950;23;20635;-69
2022/01/22 00:32:27;;;;;;;5.97;2.97;;;;;;;0.14;53.72;101959.81;2556191;23;20660;-69
2022/01/22 00:33:28;;;;;;;8.13;3.00;;;;;;;0.02;54.52;101952.34;2556027;23;20153;-69
2022/01/22 00:34:28;;;;;;;6.43;3.17;;;;;;;-0.78;54.67;101845.56;2569230;23;20155;-69
2022/01/22 00:35:29;;;;;;;6.77;3.03;;;;;;;-0.07;54.47;101954.34;2568241;23;20164;-69
2022/01/22 00:36:29;;;;;;;5.63;3.07;;;;;;;-0.11;54.47;101949.84;2568697;23;20266;-69
2022/01/22 00:37:30;;;;;;;8.60;3.20;;;;;;;-0.35;54.45;101919.72;2569565;23;20230;-69
2022/01/22 00:38:31;;;;;;;9.18;3.30;;;;;;;-0.19;54.62;101947.97;2569025;23;20649;-69
2022/01/22 00:39:33;;;;;;;7.70;3.23;;;;;;;-0.37;54.95;101921.94;2568855;23;20505;-69
2022/01/22 00:40:34;;;;;;;8.32;3.40;;;;;;;-0.15;54.69;101962.56;2569560;23;20154;-69
2022/01/22 00:41:35;;;;;;;7.23;3.60;;;;;;;-0.18;54.90;101963.19;2567925;23;20151;-69
2022/01/22 00:42:36;;;;;;;8.87;2.93;;;;;;;-0.21;55.11;101961.13;2569228;23;20225;-70
2022/01/22 00:43:37;;;;;;;10.02;3.35;;;;;;;-0.46;55.16;101921.97;2568847;23;20222;-69
2022/01/22 00:44:37;;;;;;;6.47;3.40;;;;;;;-0.92;55.09;101845.78;2568552;23;20231;-69
2022/01/22 00:45:38;;;;;;;7.23;3.80;;;;;;;-0.13;55.29;101972.00;2568484;23;20159;-69
2022/01/22 00:46:38;;;;;;;8.90;3.20;;;;;;;-0.82;54.80;101856.31;2569412;23;20159;-70
2022/01/22 00:47:39;;;;;;;5.80;3.30;;;;;;;-0.02;55.03;101969.69;2555884;23;20198;-69
2022/01/22 00:48:40;;;;;;;6.47;3.10;;;;;;;-0.17;54.94;101946.53;2555375;23;20151;-69
2022/01/22 00:49:40;;;;;;;7.80;3.40;;;;;;;-0.45;55.35;101936.41;2568131;23;20182;-69
2022/01/22 00:50:41;;;;;;;9.30;3.70;;;;;;;-0.11;55.38;101971.66;2569359;23;20614;-69
2022/01/22 00:51:42;;;;;;;7.13;3.53;;;;;;;-0.15;55.16;101946.22;2567940;23;20169;-69
2022/01/22 00:52:44;;;;;;;7.40;3.70;;;;;;;-0.15;54.86;101987.84;2569411;23;20225;-69
2022/01/22 00:53:45;;;;;;;7.78;3.17;;;;;;;-0.70;54.98;101842.81;2569242;23;20154;-69
2022/01/22 00:54:45;;;;;;;6.73;3.27;;;;;;;0.09;54.84;101960.00;2569610;23;20610;-69
2022/01/22 00:55:46;;;;;;;6.17;3.40;;;;;;;0.06;54.71;101963.41;2570302;23;20154;-69
2022/01/22 00:56:47;;;;;;;7.23;3.30;;;;;;;0.02;54.80;101963.22;2569820;23;20182;-69
2022/01/22 00:57:47;;;;;;;8.60;3.40;;;;;;;-0.63;54.42;101860.56;2570084;23;20627;-69
2022/01/22 00:58:48;;;;;;;8.30;3.50;;;;;;;-0.66;54.85;101848.41;2569215;23;20190;-70
2022/01/22 00:59:48;;;;;;;8.63;3.60;;;;;;;0.03;54.78;101956.69;2570145;23;20146;-69
2022/01/22 01:00:49;;;;;;;8.93;3.50;;;;;;;-0.57;54.79;101861.97;2568936;23;20205;-69
2022/01/22 01:01:50;;;;;;;7.77;3.60;;;;;;;-0.48;54.61;101901.66;2570218;23;20237;-69
2022/01/22 01:02:50;;;;;;;6.40;3.37;;;;;;;-0.01;55.05;101950.28;2569914;23;20769;-69
2022/01/22 01:03:51;;;;;;;7.63;3.20;;;;;;;0.02;54.96;101949.59;2570034;23;20237;-69
2022/01/22 01:04:51;;;;;;;6.77;3.40;;;;;;;0.02;55.01;101951.56;2569876;23;20177;-69
2022/01/22 01:05:52;;;;;;;6.97;3.60;;;;;;;0.04;54.63;101954.72;2570250;23;20712;-69
2022/01/22 01:06:53;;;;;;;8.57;3.57;;;;;;;-0.50;54.57;101852.94;2570107;23;20181;-69
2022/01/22 01:07:53;;;;;;;6.97;3.63;;;;;;;-0.57;54.11;101833.63;2570148;23;20188;-69
2022/01/22 01:08:54;;;;;;;7.67;3.30;;;;;;;-0.85;53.80;101780.75;2569161;23;20362;-69
2022/01/22 01:09:55;;;;;;;6.43;3.78;;;;;;;0.14;54.21;101944.25;2569821;23;20535;-69
2022/01/22 01:10:55;;;;;;;8.30;3.47;;;;;;;-0.77;53.92;101800.88;2568639;23;20175;-69
2022/01/22 01:12:01;;;;;;;7.33;3.37;;;;;;;0.04;54.15;101913.84;2556775;23;20160;-69
2022/01/22 01:13:01;;;;;;;6.57;3.22;;;;;;;0.15;53.99;101934.13;2557903;23;20641;-68
2022/01/22 01:14:05;;;;;;;7.47;3.23;;;;;;;0.14;53.48;101933.34;2570127;23;20566;-69
2022/01/22 01:15:25;;;;;;;10.15;3.55;;;;;;;0.15;53.80;101953.22;2569965;23;20503;-70
2022/01/22 01:16:55;;;;;;;7.68;2.75;;;;;;;-0.17;52.77;101876.81;2569309;23;20161;-68
2022/01/22 01:32:33;;;;;;;10.50;3.28;;;;;;;0.08;53.73;101912.88;2569995;23;20136;-69
2022/01/22 01:33:40;;;;;;;5.13;2.50;;;;;;;0.15;53.59;101917.78;2556551;23;20155;-69
2022/01/22 01:34:43;;;;;;;6.60;3.17;;;;;;;-0.71;53.22;101775.09;2558213;23;20174;-69
2022/01/22 01:35:44;;;;;;;5.82;2.72;;;;;;;-0.28;53.31;101836.34;2569944;23;20152;-68
2022/01/22 01:36:46;;;;;;;5.57;2.93;;;;;;;0.29;53.26;101912.88;2569900;23;20242;-69
2022/01/22 01:37:46;;;;;;;5.70;3.00;;;;;;;0.26;53.09;101906.16;2570073;23;20155;-69
2022/01/22 01:38:53;;;;;;;6.27;2.73;;;;;;;0.34;53.20;101908.03;2568988;23;20231;-69
2022/01/22 01:39:59;;;;;;;8.45;3.17;;;;;;;0.40;53.08;101905.91;2569936;23;20142;-69
2022/01/22 01:41:08;;;;;;;5.95;2.92;;;;;;;-0.95;53.32;101682.38;2568521;23;20613;-68
2022/01/22 01:42:11;;;;;;;6.03;3.30;;;;;;;0.46;53.25;101913.53;2570312;23;20135;-69
2022/01/22 01:43:20;;;;;;;6.72;3.10;;;;;;;0.22;53.39;101869.00;2569685;23;20594;-69
2022/01/22 01:44:21;;;;;;;5.38;2.97;;;;;;;0.37;53.57;101907.34;2569952;23;20142;-69
2022/01/22 01:45:22;;;;;;;6.30;2.90;;;;;;;0.37;53.72;101909.31;2569898;23;20179;-69
2022/01/22 01:46:25;;;;;;;5.33;2.90;;;;;;;0.20;53.43;101879.44;2569837;23;20230;-68
2022/01/22 01:47:26;;;;;;;7.97;3.30;;;;;;;0.43;53.54;101914.19;2570013;23;20158;-69
2022/01/22 01:48:30;;;;;;;7.50;3.40;;;;;;;0.43;53.61;101914.19;2569972;23;20152;-69
2022/01/22 01:49:32;;;;;;;6.93;3.50;;;;;;;0.45;53.44;101905.69;2569455;23;20148;-68
2022/01/22 01:50:35;;;;;;;7.90;3.75;;;;;;;-0.16;53.06;101822.78;2570066;23;20156;-68
2022/01/22 01:51:36;;;;;;;7.25;3.58;;;;;;;0.33;53.41;101900.19;2568313;23;20479;-68
2022/01/22 01:54:03;;;;;;;6.73;3.83;;;;;;;0.38;53.21;101906.25;2569743;23;20589;-69
2022/01/22 01:55:18;;;;;;;8.10;3.67;;;;;;;-0.34;52.90;101802.22;2569821;23;20541;-68
2022/01/22 01:57:39;;;;;;;8.18;3.35;;;;;;;0.24;53.27;101886.63;2569249;23;20147;-69
2022/01/22 01:58:40;;;;;;;9.05;3.53;;;;;;;-0.24;53.03;101795.63;2569198;23;20161;-68
2022/01/22 01:59:43;;;;;;;7.63;3.80;;;;;;;0.51;53.19;101899.72;2569713;23;20151;-69
2022/01/22 02:00:44;;;;;;;8.23;3.70;;;;;;;0.44;52.79;101887.75;2569392;23;20152;-69
2022/01/22 02:01:45;;;;;;;7.25;3.22;;;;;;;0.56;53.13;101899.50;2569343;23;20218;-69
2022/01/22 02:02:48;;;;;;;9.40;3.47;;;;;;;0.62;53.04;101900.09;2568775;23;20194;-68
2022/01/22 02:03:49;;;;;;;7.72;3.80;;;;;;;0.64;53.13;101895.09;2569144;23;20155;-69
2022/01/22 02:04:49;;;;;;;7.63;3.55;;;;;;;0.16;53.40;101818.53;2569667;23;20155;-69
2022/01/22 02:05:51;;;;;;;8.10;3.70;;;;;;;0.56;53.33;101891.31;2556463;23;20159;-68
2022/01/22 02:06:51;;;;;;;7.47;3.67;;;;;;;0.50;53.57;101880.94;2556716;23;20657;-69
2022/01/22 02:07:54;;;;;;;7.00;3.87;;;;;;;0.66;53.71;101893.63;2569800;23;20499;-69
2022/01/22 02:08:55;;;;;;;7.78;3.60;;;;;;;0.58;53.35;101877.34;2568827;23;20487;-69
2022/01/22 02:09:57;;;;;;;8.40;3.17;;;;;;;0.37;53.47;101854.78;2569616;23;20213;-69
2022/01/22 02:11:00;;;;;;;5.97;3.17;;;;;;;0.63;53.45;101891.56;2555237;23;20167;-69
2022/01/22 02:13:27;;;;;;;6.90;3.03;;;;;;;0.67;53.30;101895.22;2557028;23;20164;-68
2022/01/22 02:23:53;;;;;;;7.45;3.22;;;;;;;0.35;53.31;101882.38;2569745;23;20170;-69
2022/01/22 02:24:55;;;;;;;6.10;3.17;;;;;;;0.42;53.24;101890.00;2569662;23;20166;-69
2022/01/22 02:25:57;;;;;;;9.43;3.55;;;;;;;0.44;53.09;101894.00;2569955;23;20163;-69
2022/01/22 02:26:58;;;;;;;7.93;3.08;;;;;;;0.38;53.42;101891.81;2569923;23;20174;-69
2022/01/22 02:28:00;;;;;;;6.83;3.00;;;;;;;0.36;53.06;101888.63;2569888;23;20179;-70
2022/01/22 02:29:01;;;;;;;6.72;2.65;;;;;;;0.31;53.34;101888.81;2568690;23;20186;-69
2022/01/22 02:30:03;;;;;;;7.70;3.30;;;;;;;0.24;53.74;101892.06;2556427;23;20680;-69
2022/01/22 02:31:17;;;;;;;8.05;3.00;;;;;;;0.16;53.88;101882.03;2555394;23;20154;-69
2022/01/22 02:33:52;;;;;;;5.43;3.10;;;;;;;0.26;53.39;101886.28;2569841;23;20570;-69
2022/01/22 02:35:03;;;;;;;5.78;2.72;;;;;;;0.14;53.65;101889.75;2556365;23;20222;-68
2022/01/22 02:36:17;;;;;;;6.75;3.15;;;;;;;-0.29;53.99;101853.00;2558731;23;20137;-68
2022/01/22 02:37:21;;;;;;;7.00;2.80;;;;;;;-0.55;53.77;101798.69;2569632;23;20134;-69
2022/01/22 02:38:34;;;;;;;9.23;3.35;;;;;;;-0.02;54.07;101871.56;2569831;23;20155;-68
2022/01/22 02:39:42;;;;;;;6.20;2.55;;;;;;;-0.47;53.90;101801.72;2569504;23;20155;-69
2022/01/22 02:40:48;;;;;;;7.32;3.38;;;;;;;-0.12;54.35;101866.50;2569728;23;20143;-69
2022/01/22 02:41:51;;;;;;;8.25;3.33;;;;;;;-0.04;54.25;101890.97;2569718;23;20481;-69
2022/01/22 02:42:52;;;;;;;8.70;2.97;;;;;;;-0.64;54.02;101797.16;2569528;23;20500;-69
2022/01/22 02:43:55;;;;;;;7.37;3.30;;;;;;;-0.12;54.32;101867.31;2569810;23;20232;-68
2022/01/22 02:44:56;;;;;;;8.45;3.22;;;;;;;-0.03;54.34;101878.16;2568702;23;20161;-69
2022/01/22 02:45:58;;;;;;;7.63;3.20;;;;;;;-0.75;54.25;101799.44;2569119;23;20158;-69
2022/01/22 02:47:00;;;;;;;8.80;3.53;;;;;;;-0.06;54.38;101892.44;2556248;23;20171;-69
2022/01/22 02:48:01;;;;;;;7.50;3.17;;;;;;;-0.05;54.20;101885.88;2556869;23;20230;-68
2022/01/22 02:49:03;;;;;;;7.50;3.10;;;;;;;-0.56;54.11;101796.31;2568866;23;20579;-69
2022/01/22 02:50:07;;;;;;;7.28;3.05;;;;;;;-0.07;54.04;101902.56;2569458;23;20186;-70
2022/01/22 02:51:07;;;;;;;9.95;3.33;;;;;;;0.01;54.19;101896.22;2554745;23;20213;-69
2022/01/22 02:52:09;;;;;;;6.50;2.90;;;;;;;0.00;54.10;101888.41;2556645;23;20151;-69
2022/01/22 02:53:13;;;;;;;7.90;3.13;;;;;;;-0.63;54.13;101819.75;2568430;23;20233;-68
2022/01/22 02:54:13;;;;;;;8.48;3.33;;;;;;;-0.77;54.17;101770.94;2568965;23;20201;-68
2022/01/22 02:55:14;;;;;;;7.73;3.57;;;;;;;-0.37;54.21;101845.69;2569425;23;20161;-69
2022/01/22 02:56:16;;;;;;;6.25;3.40;;;;;;;-0.09;54.34;101888.44;2569727;23;20162;-69
2022/01/22 02:57:17;;;;;;;6.53;3.08;;;;;;;-0.98;54.84;101750.28;2569411;23;20157;-69
2022/01/22 02:58:17;;;;;;;7.30;3.50;;;;;;;-0.20;54.99;101881.78;2556323;23;20242;-68
2022/01/22 02:59:21;;;;;;;8.03;3.53;;;;;;;-0.12;55.13;101894.56;2555427;23;20150;-69
2022/01/22 03:00:23;;;;;;;8.27;3.72;;;;;;;-0.31;55.51;101869.69;2568775;23;20214;-68
2022/01/22 03:01:24;;;;;;;6.18;3.17;;;;;;;-0.13;55.76;101913.97;2567621;23;20622;-68
2022/01/22 03:02:25;;;;;;;9.03;3.70;;;;;;;-0.13;55.94;101895.72;2569762;23;20600;-69
2022/01/22 03:03:25;;;;;;;11.63;3.30;;;;;;;-0.19;57.06;101904.41;2569590;23;20627;-68
2022/01/22 03:04:26;;;;;;;11.37;3.50;;;;;;;-0.32;57.66;101889.88;2569492;23;20376;-69
2022/01/22 03:05:27;;;;;;;9.80;3.67;;;;;;;-0.29;58.51;101893.88;2569279;23;20671;-68
2022/01/22 03:06:28;;;;;;;7.22;3.50;;;;;;;-0.35;59.63;101887.03;2569647;23;20153;-67
2022/01/22 03:07:28;;;;;;;9.97;3.70;;;;;;;-0.35;59.78;101890.53;2556317;23;20163;-69
2022/01/22 03:08:31;;;;;;;10.93;4.13;;;;;;;-0.44;60.74;101902.59;2556407;23;20656;-68
2022/01/22 03:09:39;;;;;;;7.60;3.60;;;;;;;-0.46;60.96;101897.47;2569051;23;20583;-68
2022/01/22 03:10:44;;;;;;;10.32;3.70;;;;;;;-1.26;61.29;101788.75;2569516;23;20204;-69
2022/01/22 03:12:02;;;;;;;6.18;3.42;;;;;;;-0.81;61.49;101836.13;2568727;23;20507;-68
2022/01/22 03:13:24;;;;;;;7.43;3.63;;;;;;;-0.63;61.69;101863.28;2569433;23;20600;-68
2022/01/22 03:15:58;;;;;;;8.80;3.65;;;;;;;-0.60;61.71;101858.78;2569721;23;20162;-69
2022/01/22 03:17:35;;;;;;;8.85;3.58;;;;;;;-1.00;62.16;101794.13;2569270;23;20139;-69
2022/01/22 03:18:34;;;;;;;7.50;3.72;;;;;;;-0.48;62.29;101865.47;2568957;23;20406;-68
2022/01/22 03:21:59;;;;;;;8.63;4.30;;;;;;;-0.57;62.97;101868.22;2568947;23;20164;-69
2022/01/22 03:27:13;;;;;;;7.05;3.35;;;;;;;-0.65;63.36;101858.19;2569396;23;20161;-69
2022/01/22 03:27:24;;;;;;;7.97;3.70;;;;;;;-1.35;64.48;101784.50;2569440;23;20142;-70
2022/01/22 03:28:29;;;;;;;7.43;3.72;;;;;;;-0.78;64.70;101863.84;2569538;23;20144;-68
2022/01/22 03:29:38;;;;;;;8.70;3.80;;;;;;;-1.40;64.97;101779.22;2555679;23;20166;-69
2022/01/22 03:30:39;;;;;;;8.18;3.97;;;;;;;-0.76;65.05;101865.88;2558407;23;20138;-69
2022/01/22 03:31:41;;;;;;;11.63;4.50;;;;;;;-0.83;64.97;101844.97;2568079;23;20179;-69
2022/01/22 03:32:47;;;;;;;7.68;3.70;;;;;;;-1.16;65.01;101787.63;2569405;23;20172;-68
2022/01/22 03:33:48;;;;;;;6.00;3.65;;;;;;;-0.73;65.48;101854.38;2556190;23;20194;-68
2022/01/22 03:36:07;;;;;;;7.63;3.63;;;;;;;-0.71;64.99;101841.22;2569790;23;20161;-68
2022/01/22 03:37:08;;;;;;;9.60;3.77;;;;;;;-0.78;65.31;101844.78;2569333;23;20150;-69
2022/01/22 03:38:09;;;;;;;5.57;3.73;;;;;;;-1.28;65.34;101764.97;2569686;23;20161;-69
2022/01/22 03:39:10;;;;;;;7.95;3.95;;;;;;;-0.94;65.46;101827.41;2568581;23;20592;-69
2022/01/22 03:40:14;;;;;;;12.57;4.33;;;;;;;-0.68;65.22;101831.59;2569411;23;20505;-69
2022/01/22 03:41:15;;;;;;;8.88;4.07;;;;;;;-0.71;65.68;101838.50;2567664;23;20551;-69
2022/01/22 03:42:15;;;;;;;8.93;3.80;;;;;;;-0.93;65.28;101803.38;2569927;23;20155;-69
2022/01/22 03:43:18;;;;;;;7.70;3.60;;;;;;;-0.68;65.34;101834.31;2569292;23;20158;-68
2022/01/22 03:44:19;;;;;;;7.63;4.15;;;;;;;-0.75;65.37;101813.03;2569582;23;20540;-69
2022/01/22 03:45:21;;;;;;;8.85;3.90;;;;;;;-0.65;65.26;101825.50;2569340;23;20152;-69
2022/01/22 03:46:22;;;;;;;7.03;3.53;;;;;;;-0.71;64.89;101827.59;2569560;23;20596;-68
2022/01/22 03:47:22;;;;;;;4.63;3.10;;;;;;;-0.93;65.19;101797.13;2569118;23;20148;-68
2022/01/22 03:48:23;;;;;;;7.17;3.47;;;;;;;-2.13;64.67;101596.72;2569440;23;20157;-69
2022/01/22 03:49:23;;;;;;;6.27;3.57;;;;;;;-0.72;65.06;101825.19;2568507;23;20608;-69
2022/01/22 03:50:24;;;;;;;8.20;3.73;;;;;;;-0.71;64.85;101826.81;2569441;23;20276;-69
2022/01/22 03:51:25;;;;;;;7.30;3.40;;;;;;;-0.78;64.74;101810.19;2567147;23;20192;-68
2022/01/22 03:52:26;;;;;;;9.23;3.93;;;;;;;-1.16;64.76;101771.31;2568663;23;20308;-69
2022/01/22 03:53:26;;;;;;;7.47;3.60;;;;;;;-0.85;64.41;101807.19;2569335;23;20175;-69
2022/01/22 03:54:27;;;;;;;6.20;3.67;;;;;;;-0.68;64.48;101824.25;2569400;23;20182;-69
2022/01/22 03:56:44;;;;;;;8.80;3.53;;;;;;;-0.73;63.90;101806.50;2569535;23;20139;-69
2022/01/22 03:57:45;;;;;;;6.95;3.53;;;;;;;-0.57;63.88;101829.31;2569582;23;20141;-69
2022/01/22 03:58:45;;;;;;;6.70;3.53;;;;;;;-0.60;64.00;101828.03;2568780;23;20208;-70
2022/01/22 03:59:47;;;;;;;8.90;3.90;;;;;;;-0.63;64.03;101821.31;2569545;23;20200;-68
2022/01/22 04:00:51;;;;;;;7.43;3.50;;;;;;;-0.64;63.98;101818.94;2568674;23;20603;-69
2022/01/22 04:04:18;;;;;;;6.28;3.40;;;;;;;-0.86;63.35;101770.22;2569772;23;20140;-69
2022/01/22 04:05:19;;;;;;;8.40;3.72;;;;;;;-0.56;63.54;101818.88;2569183;23;20134;-69
2022/01/22 04:08:56;;;;;;;7.13;3.42;;;;;;;-0.53;62.88;101814.69;2568448;23;20213;-68
2022/01/22 04:10:00;;;;;;;7.13;3.40;;;;;;;-0.59;63.05;101810.56;2568995;23;20253;-69
2022/01/22 04:11:02;;;;;;;5.13;3.03;;;;;;;-1.18;62.96;101732.75;2568110;23;20152;-69
2022/01/22 04:12:02;;;;;;;7.10;3.22;;;;;;;-0.56;62.91;101816.16;2569445;23;20176;-69
2022/01/22 04:13:10;;;;;;;5.50;3.07;;;;;;;-0.59;62.70;101818.75;2569430;23;20541;-68
2022/01/22 04:14:25;;;;;;;5.45;3.15;;;;;;;-0.68;62.71;101816.06;2569514;23;20138;-68
2022/01/22 04:15:28;;;;;;;6.50;2.92;;;;;;;-0.77;62.45;101812.59;2569212;23;20186;-68
2022/01/22 04:16:30;;;;;;;5.85;3.42;;;;;;;-1.08;62.52;101760.41;2569322;23;20160;-69
2022/01/22 04:25:07;;;;;;;5.47;3.10;;;;;;;-0.86;64.03;101813.75;2569111;23;20144;-68
2022/01/22 04:26:22;;;;;;;6.70;3.30;;;;;;;-0.83;64.05;101826.69;2569493;23;20154;-68
2022/01/22 04:27:24;;;;;;;8.55;3.15;;;;;;;-0.93;64.73;101818.91;2569450;23;20175;-68
2022/01/22 04:28:25;;;;;;;8.25;3.70;;;;;;;-0.94;64.87;101817.31;2569585;23;20177;-68
2022/01/22 04:29:27;;;;;;;6.90;3.17;;;;;;;-0.95;64.64;101813.00;2569358;23;20152;-68
2022/01/22 04:30:28;;;;;;;6.05;3.05;;;;;;;-0.90;64.87;101804.66;2569722;23;20184;-68
2022/01/22 04:31:29;;;;;;;6.57;2.77;;;;;;;-1.85;64.89;101655.75;2568651;23;20181;-68
2022/01/22 04:32:31;;;;;;;6.93;2.93;;;;;;;-0.88;65.05;101805.09;2570297;23;20163;-69
2022/01/22 04:33:32;;;;;;;7.05;3.25;;;;;;;-0.92;64.88;101812.34;2570057;23;20183;-69
2022/01/22 04:34:33;;;;;;;7.17;3.43;;;;;;;-2.08;65.13;101619.88;2570223;23;20227;-69
2022/01/22 04:35:34;;;;;;;7.60;3.10;;;;;;;-0.80;65.00;101810.50;2570175;23;20146;-68
2022/01/22 04:36:34;;;;;;;6.23;3.10;;;;;;;-0.76;65.00;101821.56;2570254;23;20152;-68
2022/01/22 04:37:35;;;;;;;5.27;3.20;;;;;;;-0.77;64.96;101827.31;2570006;23;20154;-68
2022/01/22 04:38:35;;;;;;;5.10;3.10;;;;;;;-0.79;65.14;101808.59;2569219;23;20264;-68
2022/01/22 04:39:36;;;;;;;6.00;2.87;;;;;;;-0.70;64.79;101812.84;2570250;23;20156;-69
2022/01/22 04:40:37;;;;;;;7.53;3.33;;;;;;;-0.65;64.71;101817.34;2570120;23;20651;-68
2022/01/22 04:41:38;;;;;;;7.27;3.27;;;;;;;-1.23;64.52;101727.47;2568810;23;20496;-68
2022/01/22 04:42:40;;;;;;;7.07;3.43;;;;;;;-0.67;64.41;101811.41;2570332;23;20158;-68
2022/01/22 04:43:43;;;;;;;6.18;3.30;;;;;;;-0.66;64.45;101821.97;2570071;23;20599;-68
2022/01/22 04:44:59;;;;;;;4.93;3.08;;;;;;;-1.13;64.67;101771.47;2569980;23;20161;-68
2022/01/22 04:46:14;;;;;;;7.25;2.90;;;;;;;-0.71;65.06;101813.22;2569508;23;20154;-68
2022/01/22 04:47:27;;;;;;;7.75;3.13;;;;;;;-0.75;64.65;101823.16;2569258;23;20576;-68
2022/01/22 04:55:35;;;;;;;5.70;3.10;;;;;;;-1.71;64.97;101655.59;2570148;23;20146;-68
2022/01/22 04:56:35;;;;;;;6.70;3.40;;;;;;;-0.73;64.92;101808.09;2569985;23;20148;-68
2022/01/22 04:57:40;;;;;;;5.70;2.90;;;;;;;-0.70;64.91;101815.59;2570150;23;20146;-68
2022/01/22 04:58:41;;;;;;;7.78;3.55;;;;;;;-1.02;64.85;101762.94;2569185;23;20553;-69
2022/01/22 04:59:41;;;;;;;6.43;3.17;;;;;;;-0.68;65.00;101809.81;2569884;23;20229;-68
2022/01/22 05:00:45;;;;;;;6.63;3.03;;;;;;;-0.80;65.15;101809.72;2570211;23;20497;-68
2022/01/22 05:01:45;;;;;;;10.05;3.15;;;;;;;-0.77;65.14;101820.75;2569764;23;20234;-68
2022/01/22 05:02:46;;;;;;;6.90;3.50;;;;;;;-0.78;65.04;101823.78;2570039;23;20154;-68
2022/01/22 05:03:46;;;;;;;6.10;2.97;;;;;;;-0.76;65.20;101819.63;2556862;23;20276;-69
2022/01/22 05:04:47;;;;;;;7.70;2.93;;;;;;;-0.96;64.99;101786.91;2556703;23;20638;-68
2022/01/22 05:05:47;;;;;;;5.83;3.23;;;;;;;-0.76;65.54;101824.28;2570033;23;20161;-68
2022/01/22 05:06:48;;;;;;;5.00;2.70;;;;;;;-0.73;65.19;101827.16;2569921;23;20152;-68
2022/01/22 05:07:49;;;;;;;6.00;3.20;;;;;;;-1.30;65.28;101742.75;2570236;23;20160;-68
2022/01/22 05:08:49;;;;;;;7.63;3.50;;;;;;;-0.78;65.10;101828.47;2569075;23;20537;-68
2022/01/22 05:09:49;;;;;;;5.50;2.87;;;;;;;-0.81;64.87;101822.53;2570056;23;20160;-68
2022/01/22 05:10:50;;;;;;;7.73;3.03;;;;;;;-0.87;65.27;101842.09;2568905;23;20226;-68
2022/01/22 05:11:51;;;;;;;5.43;3.10;;;;;;;-0.83;65.39;101818.53;2569940;23;20149;-68
2022/01/22 05:12:53;;;;;;;6.10;2.97;;;;;;;-0.77;65.28;101813.72;2556564;23;20210;-68
2022/01/22 05:13:53;;;;;;;6.07;2.97;;;;;;;-1.32;65.03;101730.25;2557068;23;20153;-68
2022/01/22 05:14:54;;;;;;;4.90;2.80;;;;;;;-1.27;64.98;101734.72;2569922;23;20485;-68
2022/01/22 05:15:54;;;;;;;6.70;3.37;;;;;;;-1.48;64.80;101690.34;2570165;23;20501;-68
2022/01/22 05:16:56;;;;;;;6.30;3.30;;;;;;;-0.61;64.45;101812.84;2556569;23;20158;-69
2022/01/22 05:17:57;;;;;;;5.75;3.65;;;;;;;-0.65;64.85;101812.66;2557013;23;20155;-68
2022/01/22 05:19:05;;;;;;;5.95;3.13;;;;;;;-0.63;64.50;101809.63;2569119;23;20235;-68
2022/01/22 05:20:14;;;;;;;5.35;3.10;;;;;;;-0.65;64.52;101806.44;2569964;23;20222;-68
2022/01/22 05:21:16;;;;;;;6.55;3.08;;;;;;;-0.89;64.82;101779.03;2568592;23;20138;-68
2022/01/22 05:22:33;;;;;;;5.30;2.92;;;;;;;-0.78;64.53;101796.56;2570229;23;20154;-69
2022/01/22 05:23:35;;;;;;;5.30;2.65;;;;;;;-0.70;64.88;101810.13;2569942;23;20128;-68
2022/01/22 05:24:40;;;;;;;6.45;3.33;;;;;;;-0.67;64.74;101806.78;2570060;23;20210;-68
2022/01/22 05:25:46;;;;;;;6.35;3.10;;;;;;;-1.17;64.89;101718.81;2570049;23;20150;-68
2022/01/22 05:37:51;;;;;;;7.68;3.00;;;;;;;-1.00;65.79;101777.81;2570133;23;20142;-68
2022/01/22 05:38:52;;;;;;;5.87;3.30;;;;;;;-0.84;65.65;101819.66;2568763;23;20240;-68
2022/01/22 05:39:52;;;;;;;7.93;3.07;;;;;;;-0.82;65.69;101835.66;2570190;23;20183;-68
2022/01/22 05:40:53;;;;;;;8.10;2.93;;;;;;;-0.81;65.86;101811.63;2568331;23;20560;-68
2022/01/22 05:41:54;;;;;;;7.13;3.27;;;;;;;-0.76;65.79;101821.56;2569986;23;20160;-68
2022/01/22 05:42:54;;;;;;;5.10;3.10;;;;;;;-0.68;65.41;101814.47;2569800;23;20157;-68
2022/01/22 05:43:55;;;;;;;6.73;2.80;;;;;;;-1.92;65.61;101641.91;2570154;23;20193;-68
2022/01/22 05:44:55;;;;;;;7.20;3.30;;;;;;;-0.73;65.40;101803.78;2569727;23;20205;-68
2022/01/22 05:45:56;;;;;;;5.13;2.80;;;;;;;-0.71;65.43;101808.53;2570019;23;20151;-68
2022/01/22 05:46:59;;;;;;;5.63;2.77;;;;;;;-0.92;65.44;101782.41;2569630;23;20178;-68
2022/01/22 05:47:59;;;;;;;6.28;2.97;;;;;;;-0.83;65.55;101785.09;2569868;23;20160;-69
2022/01/22 05:49:00;;;;;;;5.93;2.97;;;;;;;-0.77;65.54;101800.09;2569063;23;20181;-68
2022/01/22 05:50:05;;;;;;;5.10;2.67;;;;;;;-0.89;65.09;101791.84;2569793;23;20179;-68
2022/01/22 05:51:06;;;;;;;7.20;2.97;;;;;;;-0.60;65.00;101820.66;2568526;23;20605;-68
2022/01/22 05:52:10;;;;;;;5.15;2.55;;;;;;;-0.55;65.08;101822.41;2556662;23;20186;-68
2022/01/22 05:59:37;;;;;;;6.60;2.92;;;;;;;-0.54;65.15;101821.28;2569762;23;20141;-68
2022/01/22 06:00:37;;;;;;;5.45;2.70;;;;;;;-0.52;65.07;101817.09;2569955;23;20174;-68
2022/01/22 06:01:38;;;;;;;5.57;2.80;;;;;;;-0.48;65.04;101813.72;2568587;23;20150;-68
2022/01/22 06:02:39;;;;;;;7.13;2.70;;;;;;;-0.51;65.06;101818.69;2569650;23;20233;-68
2022/01/22 06:03:40;;;;;;;5.50;2.70;;;;;;;-0.92;65.15;101752.50;2569839;23;20601;-68
2022/01/22 06:04:41;;;;;;;5.05;2.67;;;;;;;-1.73;65.09;101627.91;2569793;23;20188;-68
2022/01/22 06:05:42;;;;;;;7.88;2.97;;;;;;;-0.52;65.23;101812.78;2569698;23;20600;-68
2022/01/22 06:06:42;;;;;;;4.73;2.60;;;;;;;-0.64;64.86;101794.44;2570044;23;20502;-68
2022/01/22 06:07:43;;;;;;;4.33;2.60;;;;;;;-0.40;65.15;101817.19;2569897;23;20597;-69
2022/01/22 06:08:51;;;;;;;4.70;2.30;;;;;;;-0.35;64.73;101819.72;2569111;23;20547;-68
2022/01/22 06:10:04;;;;;;;4.78;2.67;;;;;;;-0.29;64.71;101826.56;2569439;23;20461;-68